EW8805 Carrion De Calatrava ES current weather conditions

sailwx.info

Wind from 011

Air temperature 16.1° C
Dewpoint 11.1° C

Last reported at 2018-Oct-23 20:10 UTC.
Time now 2018-Oct-23 20:34 UTC

Location: N 39°01' W 003°49'.
View on Google Maps.

See reports from other nearby stations

  
Tides and Currents Weather Stations Pressure Air Temp Water Temp Dewpoint Dewpoint Depression Visibility Wind Speed Wind Dir Waves Ship Positions
date/time (UTC)wind fromknots sea level pressurealtimeterstation pressurevisibilityair tempwater tempwave heightnotes
2018-Oct-23 20:10 011 16.1
2018-Oct-23 20:00 011 16.7
2018-Oct-23 19:55 011 16.7
2018-Oct-23 19:50 001 16.7
2018-Oct-23 19:45 349 16.7
2018-Oct-23 19:40 338 0 gusting 1 16.7
2018-Oct-23 19:35 356 0 gusting 0 16.7
2018-Oct-23 19:30 309 16.7
2018-Oct-23 19:20 315 17.2
2018-Oct-23 19:15 012 1 gusting 2 17.8
2018-Oct-23 19:10 013 1 gusting 2 17.8
2018-Oct-23 19:05 015 0 gusting 1 17.8
2018-Oct-23 19:00 014 17.8
2018-Oct-23 18:55 044 0 gusting 3 17.8
2018-Oct-23 18:50 027 1 gusting 3 18.3
2018-Oct-23 18:45 335 18.3
2018-Oct-23 18:35 319 0 gusting 1 18.9
2018-Oct-23 18:30 354 18.9
2018-Oct-23 18:20 042 0 gusting 1 18.9
2018-Oct-23 18:15 044 0 gusting 0 18.9
2018-Oct-23 18:10 044 18.9
2018-Oct-23 18:05 044 18.9
2018-Oct-23 18:00 044 18.9
2018-Oct-23 17:55 041 0 gusting 1 19.4
2018-Oct-23 17:45 058 0 gusting 2 19.4
2018-Oct-23 17:40 060 0 gusting 2 20.0
2018-Oct-23 17:30 056 2 gusting 3 20.0
2018-Oct-23 17:25 044 1 gusting 3 20.0
2018-Oct-23 17:20 042 1 gusting 3 20.6
2018-Oct-23 17:15 052 2 gusting 3 20.6
2018-Oct-23 17:05 068 1 gusting 3 21.1
2018-Oct-23 16:55 054 2 gusting 4 21.7
2018-Oct-23 16:50 050 1 gusting 5 21.7
2018-Oct-23 16:45 039 3 gusting 5 21.7
2018-Oct-23 16:35 046 3 gusting 5 22.2
2018-Oct-23 16:30 061 3 gusting 5 22.2
2018-Oct-23 16:20 065 4 gusting 6 22.2
2018-Oct-23 16:15 058 5 gusting 6 22.2
2018-Oct-23 16:05 056 2 gusting 4 22.2
2018-Oct-23 16:00 085 3 gusting 4 22.2
2018-Oct-23 15:55 089 1 gusting 4 22.2
2018-Oct-23 15:50 089 2 gusting 5 22.2
2018-Oct-23 15:40 058 4 gusting 6 22.2
2018-Oct-23 15:35 058 3 gusting 6 22.2
2018-Oct-23 15:30 049 5 gusting 8 22.2
2018-Oct-23 15:20 074 3 gusting 8 22.2
2018-Oct-23 15:15 051 2 gusting 5 22.2
2018-Oct-23 15:05 062 4 gusting 5 22.2
2018-Oct-23 15:00 072 0 gusting 4 22.2
2018-Oct-23 14:55 009 0 gusting 4 22.2
2018-Oct-23 14:50 065 2 gusting 6 22.2
2018-Oct-23 14:40 044 3 gusting 6 22.2
2018-Oct-23 14:35 046 4 gusting 6 22.2
2018-Oct-23 14:30 065 4 gusting 6 22.2
2018-Oct-23 14:25 049 0 gusting 4 22.2
2018-Oct-23 14:20 033 2 gusting 6 22.2
2018-Oct-23 14:10 054 2 gusting 4 22.2
2018-Oct-23 14:05 064 0 gusting 4 22.2
2018-Oct-23 14:00 329 1 gusting 6 21.7
2018-Oct-23 13:55 061 4 gusting 6 21.7
2018-Oct-23 13:50 001 21.7
2018-Oct-23 13:40 068 4 gusting 7 21.7
2018-Oct-23 13:35 083 5 gusting 7 21.1
2018-Oct-23 13:30 046 1 gusting 7 21.7
2018-Oct-23 13:20 046 2 gusting 6 21.1
2018-Oct-23 13:15 026 21.1
2018-Oct-23 13:10 054 3 gusting 6 21.1
2018-Oct-23 13:00 013 0 gusting 6 21.1
2018-Oct-23 12:55 094 3 gusting 6 20.6
2018-Oct-23 12:50 056 0 gusting 5 21.1
2018-Oct-23 12:45 070 0 gusting 6 20.6
2018-Oct-23 12:40 076 1 gusting 6 20.6
2018-Oct-23 12:30 064 3 gusting 6 20.6
2018-Oct-23 12:25 008 20.6
2018-Oct-23 12:15 071 4 gusting 8 20.0
2018-Oct-23 12:10 314 0 gusting 3 20.0
2018-Oct-23 12:05 351 1 gusting 4 20.0
2018-Oct-23 12:00 064 2 gusting 5 19.4
2018-Oct-23 11:55 095 2 gusting 6 20.0
2018-Oct-23 11:50 090 2 gusting 4 19.4
2018-Oct-23 11:40 093 2 gusting 4 19.4
2018-Oct-23 11:35 067 2 gusting 4 19.4
2018-Oct-23 11:25 090 0 gusting 3 18.9
2018-Oct-23 11:20 203 0 gusting 6 18.9
2018-Oct-23 11:10 077 3 gusting 6 18.9
2018-Oct-23 11:05 060 3 gusting 6 18.3
2018-Oct-23 11:00 071 5 gusting 6 18.3
2018-Oct-23 10:55 085 4 gusting 5 18.3
2018-Oct-23 10:45 068 2 gusting 6 17.8
2018-Oct-23 10:40 048 5 gusting 6 17.8
2018-Oct-23 10:35 061 4 gusting 5 17.2
2018-Oct-23 10:25 077 4 gusting 6 17.2
2018-Oct-23 10:20 065 3 gusting 6 17.2
2018-Oct-23 10:15 060 3 gusting 6 16.7
2018-Oct-23 10:10 067 3 gusting 6 16.7
2018-Oct-23 10:00 114 2 gusting 3 16.7
2018-Oct-23 09:55 069 2 gusting 4 16.1
2018-Oct-23 09:50 072 1 gusting 4 16.1
2018-Oct-23 09:45 092 1 gusting 4 16.1
2018-Oct-23 09:40 079 2 gusting 4 16.1
2018-Oct-23 09:35 060 3 gusting 4 15.6
2018-Oct-23 09:25 058 3 gusting 5 15.6
2018-Oct-23 09:20 069 3 gusting 5 15.6
2018-Oct-23 09:15 065 3 gusting 5 15.0
2018-Oct-23 09:10 067 3 gusting 5 15.0
2018-Oct-23 09:05 092 2 gusting 4 15.0
2018-Oct-23 09:00 083 2 gusting 4 14.4
2018-Oct-23 08:55 051 3 gusting 5 14.4
2018-Oct-23 08:50 060 4 gusting 5 14.4
2018-Oct-23 08:40 053 4 gusting 5 14.4
2018-Oct-23 08:30 067 3 gusting 4 13.9
2018-Oct-23 08:25 049 2 gusting 4 13.9
2018-Oct-23 08:20 054 1 gusting 3 13.9
2018-Oct-23 08:10 103 13.3
2018-Oct-23 08:05 060 2 gusting 4 13.3
2018-Oct-23 08:00 062 3 gusting 4 12.8
2018-Oct-23 07:55 060 3 gusting 5 12.8
2018-Oct-23 07:50 051 3 gusting 5 12.8
2018-Oct-23 07:45 063 4 gusting 5 12.8
2018-Oct-23 07:40 070 2 gusting 4 12.8
2018-Oct-23 07:35 073 1 gusting 3 12.2
2018-Oct-23 07:30 072 3 gusting 5 12.2
2018-Oct-23 07:25 081 3 gusting 5 12.2
2018-Oct-23 07:20 067 3 gusting 4 12.2
2018-Oct-23 07:10 086 2 gusting 6 12.2
2018-Oct-23 07:05 053 3 gusting 6 12.2
2018-Oct-23 07:00 072 5 gusting 6 12.2
2018-Oct-23 06:55 061 5 gusting 6 12.2
2018-Oct-23 06:50 064 4 gusting 5 12.2
2018-Oct-23 06:45 061 5 gusting 6 12.2
2018-Oct-23 06:40 056 5 gusting 6 12.2
2018-Oct-23 06:30 067 5 gusting 6 12.2
2018-Oct-23 06:20 044 5 gusting 6 12.2
2018-Oct-23 06:15 050 4 gusting 6 12.2
2018-Oct-23 06:10 062 5 gusting 9 12.8
2018-Oct-23 06:00 071 6 gusting 8 12.2
2018-Oct-23 05:55 071 6 gusting 8 12.2
2018-Oct-23 05:50 053 7 gusting 8 12.2
2018-Oct-23 05:45 060 7 gusting 9 12.2
2018-Oct-23 05:35 064 5 gusting 7 12.2
2018-Oct-23 05:30 070 6 gusting 7 12.2
2018-Oct-23 05:25 065 6 gusting 7 12.2
2018-Oct-23 05:20 064 6 gusting 7 12.2
2018-Oct-23 05:15 076 6 gusting 8 12.2
2018-Oct-23 05:10 057 6 gusting 8 12.2
2018-Oct-23 05:00 071 5 gusting 7 12.2
2018-Oct-23 04:55 086 4 gusting 6 12.2
2018-Oct-23 04:45 070 4 gusting 6 12.2
2018-Oct-23 04:40 070 4 gusting 7 12.2
2018-Oct-23 04:35 056 5 gusting 7 12.2
2018-Oct-23 04:30 066 4 gusting 7 12.2
2018-Oct-23 04:25 070 4 gusting 6 12.2
2018-Oct-23 04:15 062 4 gusting 6 12.2
2018-Oct-23 04:10 053 3 gusting 5 12.2
2018-Oct-23 04:05 076 4 gusting 6 12.2
2018-Oct-23 04:00 101 4 gusting 5 12.2
2018-Oct-23 03:55 086 3 gusting 5 12.2
2018-Oct-23 03:50 072 2 gusting 3 12.2
2018-Oct-23 03:45 072 1 gusting 3 12.8
2018-Oct-23 03:40 087 2 gusting 3 12.8
2018-Oct-23 03:30 083 2 gusting 6 12.8
2018-Oct-23 03:25 053 4 gusting 6 12.8
2018-Oct-23 03:15 065 6 gusting 7 12.8
2018-Oct-23 03:10 060 5 gusting 6 12.8
2018-Oct-23 03:05 052 5 gusting 7 12.8
2018-Oct-23 03:00 069 6 gusting 9 12.8
2018-Oct-23 02:55 052 7 gusting 9 12.8
2018-Oct-23 02:50 060 6 gusting 9 12.8
2018-Oct-23 02:40 077 6 gusting 9 12.8
2018-Oct-23 02:35 056 6 gusting 9 12.8
2018-Oct-23 02:30 085 6 gusting 8 12.8
2018-Oct-23 02:20 083 6 gusting 8 12.8
2018-Oct-23 02:15 071 7 gusting 11 13.3
2018-Oct-23 02:10 070 8 gusting 12 13.3
2018-Oct-23 02:00 043 9 gusting 11 13.3
2018-Oct-23 01:55 044 7 gusting 11 13.3
2018-Oct-23 01:50 061 8 gusting 11 13.3
2018-Oct-23 01:45 066 8 gusting 11 13.3
2018-Oct-23 01:40 061 8 gusting 11 13.3
2018-Oct-23 01:35 067 7 gusting 9 13.3
2018-Oct-23 01:30 061 6 gusting 8 13.3
2018-Oct-23 01:25 060 6 gusting 8 13.3
2018-Oct-23 01:20 064 6 gusting 8 13.3
2018-Oct-23 01:15 056 6 gusting 8 13.3
2018-Oct-23 01:05 058 5 gusting 8 13.9
2018-Oct-23 01:00 063 6 gusting 7 13.9
2018-Oct-23 00:55 046 6 gusting 8 13.9
2018-Oct-23 00:45 058 5 gusting 8 13.9
2018-Oct-23 00:40 058 6 gusting 6 13.9
2018-Oct-23 00:35 056 5 gusting 6 13.9
2018-Oct-23 00:25 057 6 gusting 6 13.9
2018-Oct-23 00:20 063 5 gusting 6 13.9
2018-Oct-23 00:10 063 6 gusting 7 14.4
2018-Oct-23 00:05 065 5 gusting 6 14.4
2018-Oct-23 00:00 056 3 gusting 5 14.4
2018-Oct-22 23:55 037 3 gusting 4 14.4
2018-Oct-22 23:45 064 2 gusting 4 14.4
2018-Oct-22 23:35 056 1 gusting 4 14.4
2018-Oct-22 23:30 043 1 gusting 3 14.4
2018-Oct-22 23:25 015 1 gusting 3 14.4
2018-Oct-22 23:20 049 3 gusting 4 14.4
2018-Oct-22 23:15 056 2 gusting 4 14.4
2018-Oct-22 23:10 041 1 gusting 4 14.4
2018-Oct-22 23:00 048 2 gusting 3 14.4
2018-Oct-22 22:55 057 0 gusting 3 14.4
2018-Oct-22 22:45 040 0 gusting 2 14.4
2018-Oct-22 22:40 050 0 gusting 2 15.0
2018-Oct-22 22:30 050 2 gusting 3 15.0
2018-Oct-22 22:25 056 2 gusting 3 15.0
2018-Oct-22 22:20 065 1 gusting 2 15.0
2018-Oct-22 22:15 039 0 gusting 2 15.0
2018-Oct-22 22:10 036 0 gusting 2 15.0
2018-Oct-22 22:05 025 0 gusting 2 15.0
2018-Oct-22 22:00 001 1 gusting 2 15.0
2018-Oct-22 21:55 015 15.0
2018-Oct-22 21:50 042 15.6
2018-Oct-22 21:45 004 0 gusting 3 15.6
2018-Oct-22 21:35 352 0 gusting 3 15.6
2018-Oct-22 21:30 047 1 gusting 2 15.6
2018-Oct-22 21:20 359 15.6
2018-Oct-22 21:15 327 16.1
2018-Oct-22 21:10 345 0 gusting 2 16.1
2018-Oct-22 21:05 343 0 gusting 2 15.6
2018-Oct-22 21:00 326 15.6
2018-Oct-22 20:55 332 0 gusting 3 15.6
2018-Oct-22 20:50 294 1 gusting 3 16.1
2018-Oct-22 20:40 343 0 gusting 1 16.1
2018-Oct-22 20:35 321 0 gusting 1 16.1
2018-Oct-22 20:30 318 1 gusting 1 16.1
2018-Oct-22 20:25 319 0 gusting 2 16.1
2018-Oct-22 20:15 296 0 gusting 1 16.7
2018-Oct-22 20:05 349 17.2
2018-Oct-22 20:00 005 17.2
2018-Oct-22 19:55 333 17.2
2018-Oct-22 19:50 356 1 gusting 3 17.2
2018-Oct-22 19:45 321 1 gusting 2 17.2
2018-Oct-22 19:35 345 17.8
2018-Oct-22 19:30 309 17.8
2018-Oct-22 19:25 274 18.3
2018-Oct-22 19:15 274 18.3
2018-Oct-22 19:10 274 18.3
2018-Oct-22 19:00 274 18.3
2018-Oct-22 18:55 274 18.9
2018-Oct-22 18:50 274 18.9
2018-Oct-22 18:45 274 18.9
2018-Oct-22 18:40 292 19.4
2018-Oct-22 18:35 314 19.4
2018-Oct-22 18:30 314 20.0
2018-Oct-22 18:25 315 0 gusting 1 20.0
2018-Oct-22 18:15 334 0 gusting 2 20.0
2018-Oct-22 18:10 335 0 gusting 2 20.0
2018-Oct-22 18:00 326 1 gusting 3 20.0
2018-Oct-22 17:55 319 1 gusting 3 20.6
2018-Oct-22 17:50 354 2 gusting 2 20.6
2018-Oct-22 17:45 004 1 gusting 2 20.6
2018-Oct-22 17:35 325 1 gusting 2 21.1
2018-Oct-22 17:25 347 0 gusting 1 21.1
2018-Oct-22 17:20 346 1 gusting 1 21.7
2018-Oct-22 17:15 015 1 gusting 1 21.7
2018-Oct-22 17:10 008 21.7
2018-Oct-22 17:00 033 21.7
2018-Oct-22 16:55 032 22.2
2018-Oct-22 16:50 032 0 gusting 0 22.2
2018-Oct-22 16:45 056 22.2
2018-Oct-22 16:40 047 0 gusting 2 22.2
2018-Oct-22 16:35 050 1 gusting 2 22.8
2018-Oct-22 16:30 025 0 gusting 3 22.8
2018-Oct-22 16:25 039 1 gusting 5 22.8
2018-Oct-22 16:15 042 5 gusting 6 22.8
2018-Oct-22 16:10 057 2 gusting 5 22.8
2018-Oct-22 16:00 041 2 gusting 4 22.8
2018-Oct-22 15:55 051 2 gusting 5 22.8
2018-Oct-22 15:50 059 2 gusting 5 22.8
2018-Oct-22 15:45 357 0 gusting 3 22.8
2018-Oct-22 15:40 341 0 gusting 4 22.8
2018-Oct-22 15:30 004 22.8
2018-Oct-22 15:25 053 2 gusting 4 22.8
2018-Oct-22 15:20 098 1 gusting 4 22.8
2018-Oct-22 15:10 089 4 gusting 5 22.8
2018-Oct-22 15:05 046 1 gusting 4 22.2
2018-Oct-22 14:55 074 3 gusting 6 22.2
2018-Oct-22 14:45 063 22.8
2018-Oct-22 14:40 056 2 gusting 3 22.8
2018-Oct-22 14:35 166 0 gusting 3 22.2
2018-Oct-22 14:30 154 1 gusting 3 22.2
2018-Oct-22 14:20 084 0 gusting 1 22.2
2018-Oct-22 14:15 077 22.2
2018-Oct-22 14:10 076 22.2
2018-Oct-22 14:00 211 22.2
2018-Oct-22 13:55 148 1 gusting 2 21.7
2018-Oct-22 13:50 103 0 gusting 3 21.7
2018-Oct-22 13:45 115 1 gusting 3 21.7
2018-Oct-22 13:40 070 2 gusting 3 21.7
2018-Oct-22 13:30 082 2 gusting 5 21.1
2018-Oct-22 13:25 104 3 gusting 4 21.1
2018-Oct-22 13:20 096 1 gusting 4 21.1
2018-Oct-22 13:15 070 3 gusting 5 21.1
2018-Oct-22 13:10 077 1 gusting 4 21.1
2018-Oct-22 13:00 061 3 gusting 5 20.6
2018-Oct-22 12:55 070 0 gusting 6 20.6
2018-Oct-22 12:50 056 4 gusting 6 20.6
2018-Oct-22 12:45 049 1 gusting 4 20.6
2018-Oct-22 12:40 074 20.6
2018-Oct-22 12:35 064 1 gusting 3 20.6
2018-Oct-22 12:30 051 1 gusting 4 20.0
2018-Oct-22 12:25 065 2 gusting 4 20.0
2018-Oct-22 12:20 101 1 gusting 3 20.0
2018-Oct-22 12:10 098 0 gusting 4 20.0
2018-Oct-22 12:05 036 0 gusting 4 19.4
2018-Oct-22 12:00 060 1 gusting 4 19.4
2018-Oct-22 11:55 071 2 gusting 3 19.4
2018-Oct-22 11:50 044 0 gusting 4 18.9
2018-Oct-22 11:45 105 2 gusting 4 18.9
2018-Oct-22 11:35 085 1 gusting 4 18.9
2018-Oct-22 11:25 108 2 gusting 3 17.8
2018-Oct-22 11:20 073 1 gusting 4 17.8
2018-Oct-22 11:15 093 3 gusting 4 17.8
2018-Oct-22 11:10 083 3 gusting 4 17.8
2018-Oct-22 11:00 108 1 gusting 4 17.2
2018-Oct-22 10:55 103 17.2
2018-Oct-22 10:50 060 1 gusting 3 16.7
2018-Oct-22 10:40 062 0 gusting 3 16.7
2018-Oct-22 10:35 070 0 gusting 3 16.1
2018-Oct-22 10:20 126 1 gusting 3 15.6
2018-Oct-22 10:15 063 1 gusting 4 15.6
2018-Oct-22 10:05 079 2 gusting 3 15.0
2018-Oct-22 10:00 071 1 gusting 4 15.0
2018-Oct-22 09:55 095 1 gusting 4 15.0
2018-Oct-22 09:50 079 3 gusting 4 15.0
2018-Oct-22 09:45 068 3 gusting 4 15.0
2018-Oct-22 09:40 065 3 gusting 4 15.0
2018-Oct-22 09:35 081 2 gusting 3 15.0
2018-Oct-22 09:30 083 2 gusting 5 15.0
2018-Oct-22 09:25 061 4 gusting 5 15.0
2018-Oct-22 09:15 084 1 gusting 3 14.4
2018-Oct-22 09:10 072 1 gusting 4 14.4
2018-Oct-22 09:05 074 2 gusting 3 14.4
2018-Oct-22 08:55 065 0 gusting 2 13.9
2018-Oct-22 08:50 076 0 gusting 1 13.9
2018-Oct-22 08:45 076 0 gusting 1 13.3
2018-Oct-22 08:40 067 0 gusting 1 13.3
2018-Oct-22 08:35 063 0 gusting 1 12.8
2018-Oct-22 08:30 087 0 gusting 1 12.8
2018-Oct-22 08:20 064 1 gusting 1 12.8
2018-Oct-22 08:15 104 12.8
2018-Oct-22 08:10 093 0 gusting 0 12.8
2018-Oct-22 08:05 104 12.8
2018-Oct-22 08:00 091 0 gusting 2 12.8
2018-Oct-22 07:55 087 0 gusting 2 12.8
2018-Oct-22 07:50 096 2 gusting 2 12.8
2018-Oct-22 07:45 108 0 gusting 1 13.3
2018-Oct-22 07:35 113 0 gusting 1 13.3
2018-Oct-22 07:30 117 0 gusting 0 13.3
2018-Oct-22 07:25 127 0 gusting 1 13.3
2018-Oct-22 07:20 138 13.3
2018-Oct-22 07:15 163 0 gusting 1 12.8
2018-Oct-22 07:10 139 12.8
2018-Oct-22 07:00 159 0 gusting 1 12.2
2018-Oct-22 06:55 140 0 gusting 1 12.2
2018-Oct-22 06:50 161 0 gusting 1 12.2
2018-Oct-22 06:45 148 11.7
2018-Oct-22 06:40 125 11.7
2018-Oct-22 06:30 151 11.7
2018-Oct-22 06:20 226 0 gusting 1 11.7
2018-Oct-22 06:15 249 0 gusting 1 11.7
2018-Oct-22 06:05 175 11.7
2018-Oct-22 06:00 166 11.7
2018-Oct-22 05:55 127 1 gusting 4 11.7
2018-Oct-22 05:50 146 2 gusting 3 11.7
2018-Oct-22 05:45 104 11.7
2018-Oct-22 05:40 110 0 gusting 1 11.7
2018-Oct-22 05:35 103 0 gusting 3 12.2
2018-Oct-22 05:25 166 12.8
2018-Oct-22 05:20 191 12.8
2018-Oct-22 05:15 191 12.8
2018-Oct-22 05:05 219 12.8
2018-Oct-22 04:55 197 12.8
2018-Oct-22 04:50 201 0 gusting 2 13.3
2018-Oct-22 04:45 172 0 gusting 2 13.3
2018-Oct-22 04:35 187 0 gusting 2 13.3
2018-Oct-22 04:30 192 1 gusting 2 13.3
2018-Oct-22 04:25 163 13.3
2018-Oct-22 04:20 193 13.3
2018-Oct-22 04:15 196 1 gusting 2 13.3
2018-Oct-22 04:05 160 13.3
2018-Oct-22 04:00 198 0 gusting 1 13.3
2018-Oct-22 03:55 243 13.3
2018-Oct-22 03:50 243 13.3
2018-Oct-22 03:40 226 13.3
2018-Oct-22 03:35 212 0 gusting 1 13.3
2018-Oct-22 03:30 214 13.9
2018-Oct-22 03:25 008 13.9
2018-Oct-22 03:15 006 13.9
2018-Oct-22 03:10 011 1 gusting 2 13.9
2018-Oct-22 03:05 341 0 gusting 1 13.9
2018-Oct-22 03:00 359 1 gusting 1 13.9
2018-Oct-22 02:55 349 13.9
2018-Oct-22 02:50 336 13.9
2018-Oct-22 02:45 318 14.4
2018-Oct-22 02:40 300 14.4
2018-Oct-22 02:30 281 0 gusting 2 14.4
2018-Oct-22 02:25 326 1 gusting 2 14.4
2018-Oct-22 02:20 300 0 gusting 2 14.4
2018-Oct-22 02:15 339 1 gusting 2 14.4
2018-Oct-22 02:05 287 0 gusting 1 13.9
2018-Oct-22 02:01 293 13.9
2018-Oct-22 01:55 293 0 gusting 0 13.9
2018-Oct-22 01:50 280 0 gusting 0 14.4
2018-Oct-22 01:40 280 0 gusting 1 14.4
2018-Oct-22 01:35 276 0 gusting 0 14.4
2018-Oct-22 01:30 274 14.4
2018-Oct-22 01:20 302 0 gusting 2 13.9
2018-Oct-22 01:15 286 0 gusting 2 13.9
2018-Oct-22 01:10 301 1 gusting 4 13.9
2018-Oct-22 01:05 269 0 gusting 4 13.9
2018-Oct-22 01:00 284 2 gusting 4 14.4
2018-Oct-22 00:55 288 2 gusting 3 14.4
2018-Oct-22 00:50 252 1 gusting 2 14.4
2018-Oct-22 00:45 285 1 gusting 3 14.4
2018-Oct-22 00:40 283 0 gusting 3 14.4
2018-Oct-22 00:30 294 0 gusting 1 14.4
2018-Oct-22 00:25 336 0 gusting 1 14.4
2018-Oct-22 00:20 300 14.4
2018-Oct-22 00:15 280 1 gusting 3 14.4
2018-Oct-22 00:05 259 0 gusting 2 14.4
2018-Oct-22 00:00 235 0 gusting 2 14.4
2018-Oct-21 23:55 242 14.4
2018-Oct-21 23:45 238 0 gusting 3 14.4
2018-Oct-21 23:40 219 0 gusting 2 14.4
2018-Oct-21 23:35 246 1 gusting 2 14.4
2018-Oct-21 23:30 326 14.4
2018-Oct-21 23:20 328 14.4
2018-Oct-21 23:15 321 0 gusting 1 14.4
2018-Oct-21 23:10 025 0 gusting 2 15.0
2018-Oct-21 23:00 044 1 gusting 4 15.0
2018-Oct-21 22:55 036 1 gusting 4 15.0
2018-Oct-21 22:45 057 3 gusting 5 15.6
2018-Oct-21 22:41 058 3 gusting 4 15.6
2018-Oct-21 22:35 070 4 gusting 6 15.6
2018-Oct-21 22:30 065 4 gusting 6 15.6
2018-Oct-21 22:25 051 2 gusting 5 15.6
2018-Oct-21 22:20 070 3 gusting 5 15.6
2018-Oct-21 22:10 056 4 gusting 5 16.1
2018-Oct-21 22:05 056 4 gusting 5 16.1
2018-Oct-21 21:55 057 0 gusting 2 16.1
2018-Oct-21 21:50 111 0 gusting 3 16.7
2018-Oct-21 21:45 033 1 gusting 5 16.7
2018-Oct-21 21:40 063 4 gusting 5 16.7
2018-Oct-21 21:30 054 3 gusting 5 16.7
2018-Oct-21 21:25 056 4 gusting 6 16.7
2018-Oct-21 21:20 061 3 gusting 5 16.7
2018-Oct-21 21:15 058 4 gusting 6 16.7
2018-Oct-21 21:10 020 4 gusting 6 16.7
2018-Oct-21 21:00 053 2 gusting 6 16.7
2018-Oct-21 20:55 032 3 gusting 6 16.7
2018-Oct-21 20:45 011 2 gusting 7 16.7
2018-Oct-21 20:40 036 2 gusting 7 16.7
2018-Oct-21 20:30 298 1 gusting 4 16.7
2018-Oct-21 20:25 331 1 gusting 3 16.1
2018-Oct-21 20:15 351 2 gusting 5 16.7
2018-Oct-21 20:10 025 3 gusting 4 17.2
2018-Oct-21 20:00 340 2 gusting 4 17.2